sensor_id;sensor_type;location;lat;lon;timestamp;temperature;humidity
7502;DHT22;3792;47.740;7.606;2022-07-29T00:00:48;21.40;99.90
7502;DHT22;3792;47.740;7.606;2022-07-29T00:03:15;21.40;99.90
7502;DHT22;3792;47.740;7.606;2022-07-29T00:05:42;21.30;99.90
7502;DHT22;3792;47.740;7.606;2022-07-29T00:08:11;21.30;99.90
7502;DHT22;3792;47.740;7.606;2022-07-29T00:10:38;21.30;99.90
7502;DHT22;3792;47.740;7.606;2022-07-29T00:13:05;21.30;99.90
7502;DHT22;3792;47.740;7.606;2022-07-29T00:15:33;21.30;99.90
7502;DHT22;3792;47.740;7.606;2022-07-29T00:18:00;21.40;99.90
7502;DHT22;3792;47.740;7.606;2022-07-29T00:20:27;21.40;99.90
7502;DHT22;3792;47.740;7.606;2022-07-29T00:22:54;21.20;99.90
7502;DHT22;3792;47.740;7.606;2022-07-29T00:25:22;21.10;99.90
7502;DHT22;3792;47.740;7.606;2022-07-29T00:27:49;21.10;99.90
7502;DHT22;3792;47.740;7.606;2022-07-29T00:30:16;21.10;99.90
7502;DHT22;3792;47.740;7.606;2022-07-29T00:32:44;21.20;99.90
7502;DHT22;3792;47.740;7.606;2022-07-29T00:35:11;21.20;99.90
7502;DHT22;3792;47.740;7.606;2022-07-29T00:37:55;21.20;99.90
7502;DHT22;3792;47.740;7.606;2022-07-29T00:40:24;21.20;99.90
7502;DHT22;3792;47.740;7.606;2022-07-29T00:42:51;21.30;99.90
7502;DHT22;3792;47.740;7.606;2022-07-29T00:45:19;21.20;99.90
7502;DHT22;3792;47.740;7.606;2022-07-29T00:47:47;21.30;99.90
7502;DHT22;3792;47.740;7.606;2022-07-29T00:50:14;21.00;99.90
7502;DHT22;3792;47.740;7.606;2022-07-29T00:52:42;20.90;99.90
7502;DHT22;3792;47.740;7.606;2022-07-29T00:55:11;20.90;99.90
7502;DHT22;3792;47.740;7.606;2022-07-29T00:57:41;20.90;99.90
7502;DHT22;3792;47.740;7.606;2022-07-29T01:00:10;20.90;99.90
7502;DHT22;3792;47.740;7.606;2022-07-29T01:02:38;21.00;99.90
7502;DHT22;3792;47.740;7.606;2022-07-29T01:05:06;21.00;99.90
7502;DHT22;3792;47.740;7.606;2022-07-29T01:07:34;21.10;99.90
7502;DHT22;3792;47.740;7.606;2022-07-29T01:10:03;21.10;99.90
7502;DHT22;3792;47.740;7.606;2022-07-29T01:12:32;21.20;99.90
7502;DHT22;3792;47.740;7.606;2022-07-29T01:15:04;21.20;99.90
7502;DHT22;3792;47.740;7.606;2022-07-29T01:17:39;21.10;99.90
7502;DHT22;3792;47.740;7.606;2022-07-29T01:20:12;21.00;99.90
7502;DHT22;3792;47.740;7.606;2022-07-29T01:23:01;20.80;99.90
7502;DHT22;3792;47.740;7.606;2022-07-29T01:25:45;20.70;99.90
7502;DHT22;3792;47.740;7.606;2022-07-29T01:28:39;20.60;99.90
7502;DHT22;3792;47.740;7.606;2022-07-29T01:31:08;20.50;99.90
7502;DHT22;3792;47.740;7.606;2022-07-29T01:33:42;20.50;99.90
7502;DHT22;3792;47.740;7.606;2022-07-29T01:36:18;20.60;99.90
7502;DHT22;3792;47.740;7.606;2022-07-29T01:38:52;20.80;99.90
7502;DHT22;3792;47.740;7.606;2022-07-29T01:41:23;20.90;99.90
7502;DHT22;3792;47.740;7.606;2022-07-29T01:43:57;21.00;99.90
7502;DHT22;3792;47.740;7.606;2022-07-29T01:46:33;21.00;99.90
7502;DHT22;3792;47.740;7.606;2022-07-29T01:49:08;21.00;99.90
7502;DHT22;3792;47.740;7.606;2022-07-29T01:51:49;21.00;99.90
7502;DHT22;3792;47.740;7.606;2022-07-29T01:54:20;21.00;99.90
7502;DHT22;3792;47.740;7.606;2022-07-29T01:56:54;21.10;99.90
7502;DHT22;3792;47.740;7.606;2022-07-29T01:59:23;21.10;99.90
7502;DHT22;3792;47.740;7.606;2022-07-29T02:01:54;21.10;99.90
7502;DHT22;3792;47.740;7.606;2022-07-29T02:04:21;21.10;99.90
7502;DHT22;3792;47.740;7.606;2022-07-29T02:06:51;21.10;99.90
7502;DHT22;3792;47.740;7.606;2022-07-29T02:09:20;21.10;99.90
7502;DHT22;3792;47.740;7.606;2022-07-29T02:11:52;21.10;99.90
7502;DHT22;3792;47.740;7.606;2022-07-29T02:14:24;21.10;99.90
7502;DHT22;3792;47.740;7.606;2022-07-29T02:16:54;21.10;99.90
7502;DHT22;3792;47.740;7.606;2022-07-29T02:19:26;21.00;99.90
7502;DHT22;3792;47.740;7.606;2022-07-29T02:21:56;20.80;99.90
7502;DHT22;3792;47.740;7.606;2022-07-29T02:24:25;20.70;99.90
7502;DHT22;3792;47.740;7.606;2022-07-29T02:26:55;20.70;99.90
7502;DHT22;3792;47.740;7.606;2022-07-29T02:29:26;20.70;99.90
7502;DHT22;3792;47.740;7.606;2022-07-29T02:31:55;20.70;99.90
7502;DHT22;3792;47.740;7.606;2022-07-29T02:34:25;20.80;99.90
7502;DHT22;3792;47.740;7.606;2022-07-29T02:36:52;20.90;99.90
7502;DHT22;3792;47.740;7.606;2022-07-29T02:39:22;20.90;99.90
7502;DHT22;3792;47.740;7.606;2022-07-29T02:41:52;20.90;99.90
7502;DHT22;3792;47.740;7.606;2022-07-29T02:44:25;20.90;99.90
7502;DHT22;3792;47.740;7.606;2022-07-29T02:46:58;20.90;99.90
7502;DHT22;3792;47.740;7.606;2022-07-29T02:49:34;20.90;99.90
7502;DHT22;3792;47.740;7.606;2022-07-29T02:52:04;20.80;99.90
7502;DHT22;3792;47.740;7.606;2022-07-29T02:54:38;20.50;99.90
7502;DHT22;3792;47.740;7.606;2022-07-29T02:57:11;20.50;99.90
7502;DHT22;3792;47.740;7.606;2022-07-29T02:59:42;20.50;99.90
7502;DHT22;3792;47.740;7.606;2022-07-29T03:02:13;20.60;99.90
7502;DHT22;3792;47.740;7.606;2022-07-29T03:04:43;20.60;99.90
7502;DHT22;3792;47.740;7.606;2022-07-29T03:07:13;20.60;99.90
7502;DHT22;3792;47.740;7.606;2022-07-29T03:09:41;20.50;99.90
7502;DHT22;3792;47.740;7.606;2022-07-29T03:12:10;20.50;99.90
7502;DHT22;3792;47.740;7.606;2022-07-29T03:14:37;20.20;99.90
7502;DHT22;3792;47.740;7.606;2022-07-29T03:17:06;20.20;99.90
7502;DHT22;3792;47.740;7.606;2022-07-29T03:19:34;20.20;99.90
7502;DHT22;3792;47.740;7.606;2022-07-29T03:22:01;20.00;99.90
7502;DHT22;3792;47.740;7.606;2022-07-29T03:24:30;19.90;99.90
7502;DHT22;3792;47.740;7.606;2022-07-29T03:26:58;20.00;99.90
7502;DHT22;3792;47.740;7.606;2022-07-29T03:29:25;20.00;99.90
7502;DHT22;3792;47.740;7.606;2022-07-29T03:31:52;20.10;99.90
7502;DHT22;3792;47.740;7.606;2022-07-29T03:34:21;20.10;99.90
7502;DHT22;3792;47.740;7.606;2022-07-29T03:36:49;20.20;99.90
7502;DHT22;3792;47.740;7.606;2022-07-29T03:39:19;20.10;99.90
7502;DHT22;3792;47.740;7.606;2022-07-29T03:41:49;20.10;99.90
7502;DHT22;3792;47.740;7.606;2022-07-29T03:44:19;20.10;99.90
7502;DHT22;3792;47.740;7.606;2022-07-29T03:46:49;20.10;99.90
7502;DHT22;3792;47.740;7.606;2022-07-29T03:49:17;20.00;99.90
7502;DHT22;3792;47.740;7.606;2022-07-29T03:51:47;20.10;99.90
7502;DHT22;3792;47.740;7.606;2022-07-29T03:54:14;20.10;99.90
7502;DHT22;3792;47.740;7.606;2022-07-29T03:56:43;20.20;99.90
7502;DHT22;3792;47.740;7.606;2022-07-29T03:59:13;20.20;99.90
7502;DHT22;3792;47.740;7.606;2022-07-29T04:01:42;20.30;99.90
7502;DHT22;3792;47.740;7.606;2022-07-29T04:04:10;20.40;99.90
7502;DHT22;3792;47.740;7.606;2022-07-29T04:06:39;20.30;99.90
7502;DHT22;3792;47.740;7.606;2022-07-29T04:09:08;20.30;99.90
7502;DHT22;3792;47.740;7.606;2022-07-29T04:11:36;20.30;99.90
7502;DHT22;3792;47.740;7.606;2022-07-29T04:14:05;20.30;99.90
7502;DHT22;3792;47.740;7.606;2022-07-29T04:16:32;20.40;99.90
7502;DHT22;3792;47.740;7.606;2022-07-29T04:18:59;20.50;99.90
7502;DHT22;3792;47.740;7.606;2022-07-29T04:21:26;20.60;99.90
7502;DHT22;3792;47.740;7.606;2022-07-29T04:23:53;20.70;99.90
7502;DHT22;3792;47.740;7.606;2022-07-29T04:26:22;20.80;99.90
7502;DHT22;3792;47.740;7.606;2022-07-29T04:28:49;20.80;99.90
7502;DHT22;3792;47.740;7.606;2022-07-29T04:31:16;20.80;99.90
7502;DHT22;3792;47.740;7.606;2022-07-29T04:33:43;20.80;99.90
7502;DHT22;3792;47.740;7.606;2022-07-29T04:36:10;20.90;99.90
7502;DHT22;3792;47.740;7.606;2022-07-29T04:38:38;20.90;99.90
7502;DHT22;3792;47.740;7.606;2022-07-29T04:41:05;21.00;99.90
7502;DHT22;3792;47.740;7.606;2022-07-29T04:43:35;21.00;99.90
7502;DHT22;3792;47.740;7.606;2022-07-29T04:46:03;21.00;99.90
7502;DHT22;3792;47.740;7.606;2022-07-29T04:48:30;20.90;99.90
7502;DHT22;3792;47.740;7.606;2022-07-29T04:50:57;20.90;99.90
7502;DHT22;3792;47.740;7.606;2022-07-29T04:53:25;20.90;99.90
7502;DHT22;3792;47.740;7.606;2022-07-29T04:55:52;20.90;99.90
7502;DHT22;3792;47.740;7.606;2022-07-29T04:58:19;20.90;99.90
7502;DHT22;3792;47.740;7.606;2022-07-29T05:00:50;20.90;99.90
7502;DHT22;3792;47.740;7.606;2022-07-29T05:03:17;20.90;99.90
7502;DHT22;3792;47.740;7.606;2022-07-29T05:05:44;20.90;99.90
7502;DHT22;3792;47.740;7.606;2022-07-29T05:08:12;20.80;99.90
7502;DHT22;3792;47.740;7.606;2022-07-29T05:10:39;20.90;99.90
7502;DHT22;3792;47.740;7.606;2022-07-29T05:13:07;21.00;99.90
7502;DHT22;3792;47.740;7.606;2022-07-29T05:15:35;21.10;99.90
7502;DHT22;3792;47.740;7.606;2022-07-29T05:18:05;21.10;99.90
7502;DHT22;3792;47.740;7.606;2022-07-29T05:20:32;21.10;99.90
7502;DHT22;3792;47.740;7.606;2022-07-29T05:23:01;21.00;99.90
7502;DHT22;3792;47.740;7.606;2022-07-29T05:25:28;21.00;99.90
7502;DHT22;3792;47.740;7.606;2022-07-29T05:27:56;21.00;99.90
7502;DHT22;3792;47.740;7.606;2022-07-29T05:30:24;21.00;99.90
7502;DHT22;3792;47.740;7.606;2022-07-29T05:32:51;21.10;99.90
7502;DHT22;3792;47.740;7.606;2022-07-29T05:35:19;21.10;99.90
7502;DHT22;3792;47.740;7.606;2022-07-29T05:37:46;21.10;99.90
7502;DHT22;3792;47.740;7.606;2022-07-29T05:40:13;21.10;99.90
7502;DHT22;3792;47.740;7.606;2022-07-29T05:42:40;21.10;99.90
7502;DHT22;3792;47.740;7.606;2022-07-29T05:45:08;21.20;99.90
7502;DHT22;3792;47.740;7.606;2022-07-29T05:47:36;21.20;99.90
7502;DHT22;3792;47.740;7.606;2022-07-29T05:50:03;21.20;99.90
7502;DHT22;3792;47.740;7.606;2022-07-29T05:52:32;21.30;99.90
7502;DHT22;3792;47.740;7.606;2022-07-29T05:54:59;21.40;99.90
7502;DHT22;3792;47.740;7.606;2022-07-29T05:57:29;21.50;99.90
7502;DHT22;3792;47.740;7.606;2022-07-29T05:59:56;21.60;99.90
7502;DHT22;3792;47.740;7.606;2022-07-29T06:02:24;21.70;99.90
7502;DHT22;3792;47.740;7.606;2022-07-29T06:04:51;21.80;99.90
7502;DHT22;3792;47.740;7.606;2022-07-29T06:07:18;21.80;99.90
7502;DHT22;3792;47.740;7.606;2022-07-29T06:09:46;21.90;99.90
7502;DHT22;3792;47.740;7.606;2022-07-29T06:12:13;21.70;99.90
7502;DHT22;3792;47.740;7.606;2022-07-29T06:14:40;21.60;99.90
7502;DHT22;3792;47.740;7.606;2022-07-29T06:17:07;21.40;99.90
7502;DHT22;3792;47.740;7.606;2022-07-29T06:19:37;21.20;99.90
7502;DHT22;3792;47.740;7.606;2022-07-29T06:22:04;21.00;99.90
7502;DHT22;3792;47.740;7.606;2022-07-29T06:24:31;21.00;99.90
7502;DHT22;3792;47.740;7.606;2022-07-29T06:27:00;20.90;99.90
7502;DHT22;3792;47.740;7.606;2022-07-29T06:29:27;20.90;99.90
7502;DHT22;3792;47.740;7.606;2022-07-29T06:31:55;20.90;99.90
7502;DHT22;3792;47.740;7.606;2022-07-29T06:34:22;21.00;99.90
7502;DHT22;3792;47.740;7.606;2022-07-29T06:36:49;21.00;99.90
7502;DHT22;3792;47.740;7.606;2022-07-29T06:39:18;21.10;99.90
7502;DHT22;3792;47.740;7.606;2022-07-29T06:41:46;21.20;99.90
7502;DHT22;3792;47.740;7.606;2022-07-29T06:44:15;21.30;99.90
7502;DHT22;3792;47.740;7.606;2022-07-29T06:46:43;21.40;99.90
7502;DHT22;3792;47.740;7.606;2022-07-29T06:49:13;21.40;99.90
7502;DHT22;3792;47.740;7.606;2022-07-29T06:51:40;21.50;99.90
7502;DHT22;3792;47.740;7.606;2022-07-29T06:54:07;21.50;99.90
7502;DHT22;3792;47.740;7.606;2022-07-29T06:56:35;21.50;99.90
7502;DHT22;3792;47.740;7.606;2022-07-29T06:59:03;21.50;99.90
7502;DHT22;3792;47.740;7.606;2022-07-29T07:01:32;21.60;99.90
7502;DHT22;3792;47.740;7.606;2022-07-29T07:03:59;21.60;99.90
7502;DHT22;3792;47.740;7.606;2022-07-29T07:06:26;21.60;99.90
7502;DHT22;3792;47.740;7.606;2022-07-29T07:08:53;21.60;99.90
7502;DHT22;3792;47.740;7.606;2022-07-29T07:11:21;21.60;99.90
7502;DHT22;3792;47.740;7.606;2022-07-29T07:13:48;21.50;99.90
7502;DHT22;3792;47.740;7.606;2022-07-29T07:16:16;21.50;99.90
7502;DHT22;3792;47.740;7.606;2022-07-29T07:18:44;21.40;99.90
7502;DHT22;3792;47.740;7.606;2022-07-29T07:21:13;21.40;99.90
7502;DHT22;3792;47.740;7.606;2022-07-29T07:23:40;21.40;99.90
7502;DHT22;3792;47.740;7.606;2022-07-29T07:26:07;21.40;99.90
7502;DHT22;3792;47.740;7.606;2022-07-29T07:28:36;21.40;99.90
7502;DHT22;3792;47.740;7.606;2022-07-29T07:31:03;21.40;99.90
7502;DHT22;3792;47.740;7.606;2022-07-29T07:33:30;21.40;99.90
7502;DHT22;3792;47.740;7.606;2022-07-29T07:35:58;21.40;99.90
7502;DHT22;3792;47.740;7.606;2022-07-29T07:38:25;21.40;99.90
7502;DHT22;3792;47.740;7.606;2022-07-29T07:40:52;21.40;99.90
7502;DHT22;3792;47.740;7.606;2022-07-29T07:43:19;21.30;99.90
7502;DHT22;3792;47.740;7.606;2022-07-29T07:45:47;21.20;99.90
7502;DHT22;3792;47.740;7.606;2022-07-29T07:48:14;21.30;99.90
7502;DHT22;3792;47.740;7.606;2022-07-29T07:50:41;21.30;99.90
7502;DHT22;3792;47.740;7.606;2022-07-29T07:53:10;21.40;99.90
7502;DHT22;3792;47.740;7.606;2022-07-29T07:55:39;21.40;99.90
7502;DHT22;3792;47.740;7.606;2022-07-29T07:58:07;21.40;99.90
7502;DHT22;3792;47.740;7.606;2022-07-29T08:00:34;21.50;99.90
7502;DHT22;3792;47.740;7.606;2022-07-29T08:03:02;21.50;99.90
7502;DHT22;3792;47.740;7.606;2022-07-29T08:05:29;21.50;99.90
7502;DHT22;3792;47.740;7.606;2022-07-29T08:07:56;21.60;99.90
7502;DHT22;3792;47.740;7.606;2022-07-29T08:10:25;21.70;99.90
7502;DHT22;3792;47.740;7.606;2022-07-29T08:13:09;21.70;99.90
7502;DHT22;3792;47.740;7.606;2022-07-29T08:15:39;21.70;99.90
7502;DHT22;3792;47.740;7.606;2022-07-29T08:18:06;21.80;99.90
7502;DHT22;3792;47.740;7.606;2022-07-29T08:20:34;21.80;99.90
7502;DHT22;3792;47.740;7.606;2022-07-29T08:23:02;21.80;99.90
7502;DHT22;3792;47.740;7.606;2022-07-29T08:25:31;21.90;99.90
7502;DHT22;3792;47.740;7.606;2022-07-29T08:28:03;21.90;99.90
7502;DHT22;3792;47.740;7.606;2022-07-29T08:30:39;21.90;99.90
7502;DHT22;3792;47.740;7.606;2022-07-29T08:33:15;22.10;99.90
7502;DHT22;3792;47.740;7.606;2022-07-29T08:35:48;22.20;99.90
7502;DHT22;3792;47.740;7.606;2022-07-29T08:38:20;22.40;99.90
7502;DHT22;3792;47.740;7.606;2022-07-29T08:40:50;22.50;99.90
7502;DHT22;3792;47.740;7.606;2022-07-29T08:43:17;22.60;99.90
7502;DHT22;3792;47.740;7.606;2022-07-29T08:45:46;22.60;99.90
7502;DHT22;3792;47.740;7.606;2022-07-29T08:48:13;22.60;99.90
7502;DHT22;3792;47.740;7.606;2022-07-29T08:50:42;22.70;99.90
7502;DHT22;3792;47.740;7.606;2022-07-29T08:53:11;22.80;99.90
7502;DHT22;3792;47.740;7.606;2022-07-29T08:55:40;22.90;99.90
7502;DHT22;3792;47.740;7.606;2022-07-29T08:58:10;23.10;99.90
7502;DHT22;3792;47.740;7.606;2022-07-29T09:00:41;23.20;99.90
7502;DHT22;3792;47.740;7.606;2022-07-29T09:03:09;23.50;99.90
7502;DHT22;3792;47.740;7.606;2022-07-29T09:05:41;23.60;99.90
7502;DHT22;3792;47.740;7.606;2022-07-29T09:08:09;23.70;99.90
7502;DHT22;3792;47.740;7.606;2022-07-29T09:10:36;23.60;99.90
7502;DHT22;3792;47.740;7.606;2022-07-29T09:13:03;23.70;99.90
7502;DHT22;3792;47.740;7.606;2022-07-29T09:15:32;23.80;99.90
7502;DHT22;3792;47.740;7.606;2022-07-29T09:17:59;23.90;99.90
7502;DHT22;3792;47.740;7.606;2022-07-29T09:20:27;24.20;99.90
7502;DHT22;3792;47.740;7.606;2022-07-29T09:23:15;24.40;99.90
7502;DHT22;3792;47.740;7.606;2022-07-29T09:25:45;24.60;99.90
7502;DHT22;3792;47.740;7.606;2022-07-29T09:28:15;24.80;99.90
7502;DHT22;3792;47.740;7.606;2022-07-29T09:30:52;24.60;99.90
7502;DHT22;3792;47.740;7.606;2022-07-29T09:33:20;24.50;99.90
7502;DHT22;3792;47.740;7.606;2022-07-29T09:35:59;24.50;99.90
7502;DHT22;3792;47.740;7.606;2022-07-29T09:38:27;24.40;99.90
7502;DHT22;3792;47.740;7.606;2022-07-29T09:40:59;24.40;99.90
7502;DHT22;3792;47.740;7.606;2022-07-29T09:43:28;24.40;99.90
7502;DHT22;3792;47.740;7.606;2022-07-29T09:46:09;24.30;99.90
7502;DHT22;3792;47.740;7.606;2022-07-29T09:48:37;24.30;99.90
7502;DHT22;3792;47.740;7.606;2022-07-29T09:51:04;24.40;99.90
7502;DHT22;3792;47.740;7.606;2022-07-29T09:53:35;24.30;99.90
7502;DHT22;3792;47.740;7.606;2022-07-29T09:56:04;24.40;99.90
7502;DHT22;3792;47.740;7.606;2022-07-29T09:58:32;24.20;99.90
7502;DHT22;3792;47.740;7.606;2022-07-29T10:01:02;24.00;99.90
7502;DHT22;3792;47.740;7.606;2022-07-29T10:03:29;24.10;99.90
7502;DHT22;3792;47.740;7.606;2022-07-29T10:08:32;24.20;99.90
7502;DHT22;3792;47.740;7.606;2022-07-29T10:11:09;24.30;99.90
7502;DHT22;3792;47.740;7.606;2022-07-29T10:13:38;24.40;99.90
7502;DHT22;3792;47.740;7.606;2022-07-29T10:16:07;24.50;99.90
7502;DHT22;3792;47.740;7.606;2022-07-29T10:18:35;24.70;99.90
7502;DHT22;3792;47.740;7.606;2022-07-29T10:21:04;24.90;99.90
7502;DHT22;3792;47.740;7.606;2022-07-29T10:23:31;25.00;99.90
7502;DHT22;3792;47.740;7.606;2022-07-29T10:26:00;25.20;99.90
7502;DHT22;3792;47.740;7.606;2022-07-29T10:28:27;25.20;99.90
7502;DHT22;3792;47.740;7.606;2022-07-29T10:31:01;25.30;99.90
7502;DHT22;3792;47.740;7.606;2022-07-29T10:33:45;25.30;99.90
7502;DHT22;3792;47.740;7.606;2022-07-29T10:36:32;25.30;99.90
7502;DHT22;3792;47.740;7.606;2022-07-29T10:39:10;25.40;99.90
7502;DHT22;3792;47.740;7.606;2022-07-29T10:41:52;25.40;99.90
7502;DHT22;3792;47.740;7.606;2022-07-29T10:44:25;25.40;99.90
7502;DHT22;3792;47.740;7.606;2022-07-29T10:46:53;25.40;99.90
7502;DHT22;3792;47.740;7.606;2022-07-29T10:49:24;25.50;99.90
7502;DHT22;3792;47.740;7.606;2022-07-29T10:51:54;25.40;99.90
7502;DHT22;3792;47.740;7.606;2022-07-29T10:54:42;25.30;99.90
7502;DHT22;3792;47.740;7.606;2022-07-29T10:57:18;25.20;99.90
7502;DHT22;3792;47.740;7.606;2022-07-29T10:59:47;25.10;99.90
7502;DHT22;3792;47.740;7.606;2022-07-29T11:02:41;25.00;99.90
7502;DHT22;3792;47.740;7.606;2022-07-29T11:05:12;24.90;99.90
7502;DHT22;3792;47.740;7.606;2022-07-29T11:08:20;24.80;99.90
7502;DHT22;3792;47.740;7.606;2022-07-29T11:10:50;24.70;99.90
7502;DHT22;3792;47.740;7.606;2022-07-29T11:13:51;24.60;99.90
7502;DHT22;3792;47.740;7.606;2022-07-29T11:16:21;24.50;99.90
7502;DHT22;3792;47.740;7.606;2022-07-29T11:19:19;24.50;99.90
7502;DHT22;3792;47.740;7.606;2022-07-29T11:21:49;24.50;99.90
7502;DHT22;3792;47.740;7.606;2022-07-29T11:24:20;24.50;99.90
7502;DHT22;3792;47.740;7.606;2022-07-29T11:27:11;24.50;99.90
7502;DHT22;3792;47.740;7.606;2022-07-29T11:29:40;24.40;99.90
7502;DHT22;3792;47.740;7.606;2022-07-29T11:32:15;24.30;99.90
7502;DHT22;3792;47.740;7.606;2022-07-29T11:34:46;24.30;99.90
7502;DHT22;3792;47.740;7.606;2022-07-29T11:37:24;24.30;99.90
7502;DHT22;3792;47.740;7.606;2022-07-29T11:40:17;24.30;99.90
7502;DHT22;3792;47.740;7.606;2022-07-29T11:42:49;24.30;99.90
7502;DHT22;3792;47.740;7.606;2022-07-29T11:45:25;24.40;99.90
7502;DHT22;3792;47.740;7.606;2022-07-29T11:47:58;24.40;99.90
7502;DHT22;3792;47.740;7.606;2022-07-29T11:50:33;24.40;99.90
7502;DHT22;3792;47.740;7.606;2022-07-29T11:53:10;24.40;99.90
7502;DHT22;3792;47.740;7.606;2022-07-29T11:55:39;24.40;99.90
7502;DHT22;3792;47.740;7.606;2022-07-29T11:58:08;24.40;99.90
7502;DHT22;3792;47.740;7.606;2022-07-29T12:00:39;24.40;99.90
7502;DHT22;3792;47.740;7.606;2022-07-29T12:03:08;24.40;99.90
7502;DHT22;3792;47.740;7.606;2022-07-29T12:05:39;24.40;99.90
7502;DHT22;3792;47.740;7.606;2022-07-29T12:08:12;24.40;99.90
7502;DHT22;3792;47.740;7.606;2022-07-29T12:10:43;24.40;99.90
7502;DHT22;3792;47.740;7.606;2022-07-29T12:13:13;24.30;99.90
7502;DHT22;3792;47.740;7.606;2022-07-29T12:15:51;24.20;99.90
7502;DHT22;3792;47.740;7.606;2022-07-29T12:18:20;24.10;99.90
7502;DHT22;3792;47.740;7.606;2022-07-29T12:20:49;24.10;99.90
7502;DHT22;3792;47.740;7.606;2022-07-29T12:23:24;23.90;99.90
7502;DHT22;3792;47.740;7.606;2022-07-29T12:25:52;23.90;99.90
7502;DHT22;3792;47.740;7.606;2022-07-29T12:28:19;23.90;99.90
7502;DHT22;3792;47.740;7.606;2022-07-29T12:30:49;23.80;99.90
7502;DHT22;3792;47.740;7.606;2022-07-29T12:33:19;23.70;99.90
7502;DHT22;3792;47.740;7.606;2022-07-29T12:35:49;23.70;99.90
7502;DHT22;3792;47.740;7.606;2022-07-29T12:38:17;23.60;99.90
7502;DHT22;3792;47.740;7.606;2022-07-29T12:40:46;23.60;99.90
7502;DHT22;3792;47.740;7.606;2022-07-29T12:43:16;23.60;99.90
7502;DHT22;3792;47.740;7.606;2022-07-29T12:45:45;23.60;99.90
7502;DHT22;3792;47.740;7.606;2022-07-29T12:48:14;23.60;99.90
7502;DHT22;3792;47.740;7.606;2022-07-29T12:50:57;23.60;99.90
7502;DHT22;3792;47.740;7.606;2022-07-29T12:53:25;23.60;99.90
7502;DHT22;3792;47.740;7.606;2022-07-29T12:55:56;23.50;99.90
7502;DHT22;3792;47.740;7.606;2022-07-29T12:58:30;23.50;99.90
7502;DHT22;3792;47.740;7.606;2022-07-29T13:01:04;23.60;99.90
7502;DHT22;3792;47.740;7.606;2022-07-29T13:03:46;23.50;99.90
7502;DHT22;3792;47.740;7.606;2022-07-29T13:06:37;23.50;99.90
7502;DHT22;3792;47.740;7.606;2022-07-29T13:09:10;23.40;99.90
7502;DHT22;3792;47.740;7.606;2022-07-29T13:11:42;23.40;99.90
7502;DHT22;3792;47.740;7.606;2022-07-29T13:14:13;23.30;99.90
7502;DHT22;3792;47.740;7.606;2022-07-29T13:17:03;23.40;99.90
7502;DHT22;3792;47.740;7.606;2022-07-29T13:19:36;23.50;99.90
7502;DHT22;3792;47.740;7.606;2022-07-29T13:22:05;23.40;99.90
7502;DHT22;3792;47.740;7.606;2022-07-29T13:24:34;23.40;99.90
7502;DHT22;3792;47.740;7.606;2022-07-29T13:27:02;23.60;99.90
7502;DHT22;3792;47.740;7.606;2022-07-29T13:29:29;23.80;99.90
7502;DHT22;3792;47.740;7.606;2022-07-29T13:31:57;23.80;99.90
7502;DHT22;3792;47.740;7.606;2022-07-29T13:34:24;23.80;99.90
7502;DHT22;3792;47.740;7.606;2022-07-29T13:36:51;23.90;99.90
7502;DHT22;3792;47.740;7.606;2022-07-29T13:39:18;24.00;99.90
7502;DHT22;3792;47.740;7.606;2022-07-29T13:41:45;24.10;99.90
7502;DHT22;3792;47.740;7.606;2022-07-29T13:44:14;24.10;99.90
7502;DHT22;3792;47.740;7.606;2022-07-29T13:46:41;24.20;99.90
7502;DHT22;3792;47.740;7.606;2022-07-29T13:49:08;24.30;99.60
7502;DHT22;3792;47.740;7.606;2022-07-29T13:51:36;24.30;99.20
7502;DHT22;3792;47.740;7.606;2022-07-29T13:54:04;24.10;99.60
7502;DHT22;3792;47.740;7.606;2022-07-29T13:56:31;24.10;99.10
7502;DHT22;3792;47.740;7.606;2022-07-29T13:58:58;24.10;99.00
7502;DHT22;3792;47.740;7.606;2022-07-29T14:01:27;24.10;99.50
7502;DHT22;3792;47.740;7.606;2022-07-29T14:03:55;24.20;98.60
7502;DHT22;3792;47.740;7.606;2022-07-29T14:06:22;24.20;98.50
7502;DHT22;3792;47.740;7.606;2022-07-29T14:08:50;24.20;98.80
7502;DHT22;3792;47.740;7.606;2022-07-29T14:11:17;24.20;98.60
7502;DHT22;3792;47.740;7.606;2022-07-29T14:13:44;24.30;98.70
7502;DHT22;3792;47.740;7.606;2022-07-29T14:16:12;24.30;98.90
7502;DHT22;3792;47.740;7.606;2022-07-29T14:18:40;24.30;99.50
7502;DHT22;3792;47.740;7.606;2022-07-29T14:21:08;24.20;99.20
7502;DHT22;3792;47.740;7.606;2022-07-29T14:23:35;24.30;99.30
7502;DHT22;3792;47.740;7.606;2022-07-29T14:26:03;24.30;98.30
7502;DHT22;3792;47.740;7.606;2022-07-29T14:28:30;24.30;98.40
7502;DHT22;3792;47.740;7.606;2022-07-29T14:30:57;24.40;98.10
7502;DHT22;3792;47.740;7.606;2022-07-29T14:33:24;24.50;98.50
7502;DHT22;3792;47.740;7.606;2022-07-29T14:35:53;24.40;98.60
7502;DHT22;3792;47.740;7.606;2022-07-29T14:38:20;24.40;98.10
7502;DHT22;3792;47.740;7.606;2022-07-29T14:40:47;24.50;97.90
7502;DHT22;3792;47.740;7.606;2022-07-29T14:43:14;24.40;96.00
7502;DHT22;3792;47.740;7.606;2022-07-29T14:45:41;24.30;96.60
7502;DHT22;3792;47.740;7.606;2022-07-29T14:48:08;24.40;96.50
7502;DHT22;3792;47.740;7.606;2022-07-29T14:50:37;24.40;95.50
7502;DHT22;3792;47.740;7.606;2022-07-29T14:53:05;24.40;96.20
7502;DHT22;3792;47.740;7.606;2022-07-29T14:55:32;24.40;96.50
7502;DHT22;3792;47.740;7.606;2022-07-29T14:57:59;24.50;96.10
7502;DHT22;3792;47.740;7.606;2022-07-29T15:00:26;24.50;95.30
7502;DHT22;3792;47.740;7.606;2022-07-29T15:02:57;24.40;95.40
7502;DHT22;3792;47.740;7.606;2022-07-29T15:05:25;24.40;94.50
7502;DHT22;3792;47.740;7.606;2022-07-29T15:07:52;24.40;95.30
7502;DHT22;3792;47.740;7.606;2022-07-29T15:10:20;24.50;94.50
7502;DHT22;3792;47.740;7.606;2022-07-29T15:12:47;24.60;94.80
7502;DHT22;3792;47.740;7.606;2022-07-29T15:15:14;24.80;94.60
7502;DHT22;3792;47.740;7.606;2022-07-29T15:17:41;24.80;94.40
7502;DHT22;3792;47.740;7.606;2022-07-29T15:20:09;25.00;93.70
7502;DHT22;3792;47.740;7.606;2022-07-29T15:22:37;25.10;93.90
7502;DHT22;3792;47.740;7.606;2022-07-29T15:25:06;25.20;93.40
7502;DHT22;3792;47.740;7.606;2022-07-29T15:27:35;25.30;93.40
7502;DHT22;3792;47.740;7.606;2022-07-29T15:30:02;25.40;93.40
7502;DHT22;3792;47.740;7.606;2022-07-29T15:32:30;25.40;92.50
7502;DHT22;3792;47.740;7.606;2022-07-29T15:34:57;25.40;92.20
7502;DHT22;3792;47.740;7.606;2022-07-29T15:37:24;25.30;93.30
7502;DHT22;3792;47.740;7.606;2022-07-29T15:39:51;25.30;92.40
7502;DHT22;3792;47.740;7.606;2022-07-29T15:42:18;25.40;92.20
7502;DHT22;3792;47.740;7.606;2022-07-29T15:44:46;25.50;92.10
7502;DHT22;3792;47.740;7.606;2022-07-29T15:47:13;25.60;92.00
7502;DHT22;3792;47.740;7.606;2022-07-29T15:49:41;25.90;91.70
7502;DHT22;3792;47.740;7.606;2022-07-29T15:52:09;26.10;91.50
7502;DHT22;3792;47.740;7.606;2022-07-29T15:54:38;26.50;91.60
7502;DHT22;3792;47.740;7.606;2022-07-29T15:57:06;26.90;88.10
7502;DHT22;3792;47.740;7.606;2022-07-29T15:59:34;27.30;86.90
7502;DHT22;3792;47.740;7.606;2022-07-29T16:02:02;27.30;86.80
7502;DHT22;3792;47.740;7.606;2022-07-29T16:04:30;27.40;86.70
7502;DHT22;3792;47.740;7.606;2022-07-29T16:06:57;27.50;85.40
7502;DHT22;3792;47.740;7.606;2022-07-29T16:09:25;27.90;84.60
7502;DHT22;3792;47.740;7.606;2022-07-29T16:11:53;28.10;84.00
7502;DHT22;3792;47.740;7.606;2022-07-29T16:14:21;28.20;81.60
7502;DHT22;3792;47.740;7.606;2022-07-29T16:16:49;28.00;81.00
7502;DHT22;3792;47.740;7.606;2022-07-29T16:19:17;27.90;81.20
7502;DHT22;3792;47.740;7.606;2022-07-29T16:21:44;27.90;80.40